Time;durP1;ratioP1;P1;durP2;ratioP2;P2;SDS_P1;SDS_P2;PMS_P1;PMS_P2;Temp;Humidity;BMP_temperature;BMP_pressure;BME280_temperature;BME280_humidity;BME280_pressure;Samples;Min_cycle;Max_cycle;Signal;HPM_P1;HPM_P2
2021/09/16 00:01:38;;;;;;;6.28;2.08;;;15.80;99.90;;;17.03;92.58;100370.94;6221381;23;20008;-86
2021/09/16 00:04:06;;;;;;;4.70;2.30;;;15.80;99.90;;;17.00;92.45;100376.59;6222180;23;20004;-83
2021/09/16 00:06:33;;;;;;;5.78;1.67;;;15.80;99.90;;;16.92;92.92;100377.84;6222326;23;20027;-87
2021/09/16 00:08:58;;;;;;;3.85;1.73;;;15.70;99.90;;;16.83;93.22;100372.63;6222289;23;20012;-87
2021/09/16 00:11:24;;;;;;;6.57;2.00;;;15.60;99.90;;;16.77;93.24;100377.88;6221583;23;20032;-85
2021/09/16 00:13:50;;;;;;;10.13;2.30;;;15.50;99.90;;;16.68;93.59;100376.69;6222702;23;20004;-89
2021/09/16 00:16:22;;;;;;;7.72;2.00;;;15.50;99.90;;;16.61;93.91;100371.06;6250586;23;20042;-86
2021/09/16 00:18:48;;;;;;;6.07;1.80;;;15.40;99.90;;;16.50;94.38;100384.34;6224216;23;20004;-85
2021/09/16 00:21:15;;;;;;;6.13;1.85;;;15.30;99.90;;;16.37;94.91;100388.78;6225725;23;20008;-87
2021/09/16 00:23:41;;;;;;;4.97;2.20;;;15.20;99.90;;;16.24;95.06;100388.41;6252497;23;20421;-85
2021/09/16 00:26:06;;;;;;;8.27;2.30;;;15.10;99.90;;;16.13;95.53;100388.38;6227216;23;20062;-87
2021/09/16 00:28:32;;;;;;;6.22;2.00;;;15.00;99.90;;;16.03;95.58;100383.53;6226265;23;20008;-84
2021/09/16 00:30:58;;;;;;;5.45;2.17;;;14.90;99.90;;;15.92;96.08;100398.84;6248926;23;20008;-82
2021/09/16 00:33:24;;;;;;;5.35;1.80;;;14.80;99.90;;;15.78;96.75;100391.97;6228765;23;20015;-86
2021/09/16 00:35:50;;;;;;;4.20;1.88;;;14.70;99.90;;;15.67;97.23;100391.13;6229943;23;20019;-86
2021/09/16 00:38:16;;;;;;;5.88;2.30;;;14.60;99.90;;;15.56;97.89;100398.75;6251980;23;20008;-88
2021/09/16 00:40:42;;;;;;;3.83;1.92;;;14.50;99.90;;;15.44;97.85;100392.66;6225460;23;20095;-87
2021/09/16 00:43:08;;;;;;;3.80;2.30;;;14.30;99.90;;;15.34;98.63;100397.06;6226574;23;20004;-90
2021/09/16 00:45:33;;;;;;;6.57;2.42;;;14.30;99.90;;;15.22;99.19;100394.56;6226844;23;20008;-88
2021/09/16 18:50:36;;;;;;;3.17;1.63;;;14.70;99.90;;;15.80;93.32;100628.09;6263385;22;20024;-86
2021/09/16 18:53:02;;;;;;;2.47;1.90;;;14.60;99.90;;;15.72;95.63;100627.28;6252697;23;20489;-89
2021/09/16 18:55:28;;;;;;;4.45;2.15;;;14.50;99.90;;;15.71;95.82;100630.47;6251120;23;20019;-88
2021/09/16 18:57:54;;;;;;;2.85;1.55;;;14.50;99.90;;;15.69;95.02;100625.25;6252502;23;20027;-87
2021/09/16 19:00:20;;;;;;;4.70;2.42;;;14.50;99.90;;;15.66;95.35;100628.84;6222074;23;20012;-85
2021/09/16 19:02:54;;;;;;;4.20;2.20;;;14.50;99.90;;;15.59;95.31;100642.06;6250311;23;20011;-90
2021/09/16 19:05:22;;;;;;;4.28;2.13;;;14.40;99.90;;;15.49;95.73;100639.97;6226016;23;20011;-90
2021/09/16 19:07:48;;;;;;;4.93;1.98;;;14.30;99.90;;;15.80;94.42;100650.63;6226567;23;20068;-86
2021/09/16 19:10:24;;;;;;;4.53;2.15;;;14.20;99.90;;;15.43;96.51;100645.16;6225746;23;20157;-85
2021/09/16 19:12:50;;;;;;;4.80;2.20;;;14.20;99.90;;;15.36;97.30;100649.91;6227197;23;20008;-88
2021/09/16 19:15:17;;;;;;;3.28;2.03;;;14.20;99.90;;;15.34;97.33;100655.13;6225708;23;20406;-88
2021/09/16 19:17:43;;;;;;;2.50;1.63;;;14.10;99.90;;;15.28;97.82;100658.28;6226428;23;20012;-87
2021/09/16 19:20:10;;;;;;;5.53;2.75;;;14.10;99.90;;;15.24;99.11;100653.84;6225375;23;20030;-90
2021/09/16 19:22:38;;;;;;;4.32;1.98;;;14.00;99.90;;;15.22;98.64;100659.03;6226701;23;20011;-91
2021/09/16 19:25:07;;;;;;;5.28;2.45;;;14.00;99.90;;;15.17;98.95;100663.03;6229071;23;20004;-91
2021/09/16 19:27:33;;;;;;;4.57;2.13;;;14.00;99.90;;;15.12;98.97;100666.19;6228894;23;20395;-89
2021/09/16 19:30:11;;;;;;;5.95;2.00;;;13.90;99.90;;;15.03;99.28;100662.91;6230614;23;20099;-87
2021/09/16 19:32:39;;;;;;;2.72;2.03;;;13.90;99.90;;;15.00;99.54;100669.28;6227982;23;20015;-88
2021/09/16 19:35:07;;;;;;;2.70;2.33;;;13.80;99.90;;;14.97;99.92;100669.25;6227625;23;20019;-87
2021/09/16 19:37:33;;;;;;;3.50;2.20;;;13.80;99.90;;;14.95;100.00;100666.84;6228799;23;20012;-90
2021/09/16 19:39:59;;;;;;;2.90;2.17;;;13.80;99.90;;;14.90;100.00;100672.81;6256979;22;20020;-88
2021/09/16 19:42:25;;;;;;;4.60;2.80;;;13.70;99.90;;;14.81;100.00;100665.88;6255496;23;20031;-90
2021/09/16 19:44:51;;;;;;;3.95;2.35;;;13.60;99.90;;;14.75;100.00;100669.06;6228417;23;20000;-89
2021/09/16 19:47:17;;;;;;;4.50;2.70;;;13.60;99.90;;;14.72;100.00;100667.03;6227870;23;20019;-86
2021/09/16 19:49:43;;;;;;;6.60;2.60;;;13.60;99.90;;;14.67;100.00;100687.03;6228065;23;20008;-88
2021/09/16 19:52:10;;;;;;;3.80;2.50;;;13.50;99.90;;;14.64;100.00;100678.59;6228055;23;20397;-87
2021/09/16 19:54:38;;;;;;;5.82;2.80;;;13.40;99.90;;;14.58;100.00;100677.28;6228563;23;20008;-89
2021/09/16 19:57:04;;;;;;;4.35;2.72;;;13.40;99.90;;;14.55;100.00;100676.06;6227348;23;20004;-87
2021/09/16 19:59:30;;;;;;;3.28;2.58;;;13.40;99.90;;;14.57;100.00;100678.50;6227082;23;19999;-88
2021/09/16 20:01:57;;;;;;;5.82;3.17;;;13.40;99.90;;;14.57;100.00;100675.69;6254639;23;20000;-87
2021/09/16 20:04:23;;;;;;;5.55;4.25;;;13.30;99.90;;;14.53;100.00;100672.84;6253951;23;20094;-89
2021/09/16 20:06:50;;;;;;;7.15;3.80;;;13.40;99.90;;;14.52;100.00;100678.84;6253081;23;20004;-84
2021/09/16 20:09:17;;;;;;;6.32;4.63;;;13.30;99.90;;;14.48;100.00;100680.81;6225761;22;20011;-87
2021/09/16 20:11:43;;;;;;;6.47;4.35;;;13.30;99.90;;;14.46;100.00;100674.75;6225048;23;20004;-86
2021/09/16 20:14:09;;;;;;;7.68;4.05;;;13.30;99.90;;;14.41;100.00;100675.91;6225667;23;20015;-85
2021/09/16 20:16:35;;;;;;;7.38;4.30;;;13.30;99.90;;;14.41;100.00;100680.72;6224903;23;20103;-86
2021/09/16 20:19:04;;;;;;;7.60;4.38;;;13.20;99.90;;;14.35;100.00;100682.25;6225521;23;20008;-86
2021/09/16 20:21:30;;;;;;;6.53;4.13;;;13.20;99.90;;;14.31;100.00;100681.38;6232076;23;20419;-91
2021/09/16 20:23:56;;;;;;;6.72;3.85;;;13.20;99.90;;;14.27;100.00;100678.50;6228890;23;20019;-88
2021/09/16 20:26:22;;;;;;;6.18;4.10;;;13.10;99.90;;;14.26;100.00;100685.31;6228578;23;20008;-89
2021/09/16 20:28:48;;;;;;;6.93;3.85;;;13.00;99.90;;;14.24;100.00;100682.09;6228405;23;20012;-85
2021/09/16 20:31:13;;;;;;;8.18;4.43;;;13.10;99.90;;;14.23;100.00;100680.47;6228628;23;20015;-87
2021/09/16 20:33:40;;;;;;;6.70;4.20;;;13.00;99.90;;;14.21;100.00;100680.84;6255245;23;20007;-87
2021/09/16 20:36:06;;;;;;;6.65;3.83;;;13.00;99.90;;;14.21;100.00;100683.66;6229601;23;20004;-90
2021/09/16 20:38:33;;;;;;;8.23;4.45;;;13.00;99.90;;;14.20;100.00;100689.66;6227709;23;20010;-89
2021/09/16 20:41:01;;;;;;;7.60;4.10;;;13.00;99.90;;;14.17;100.00;100682.00;6226816;23;20011;-86
2021/09/16 20:43:27;;;;;;;6.80;4.22;;;13.00;99.90;;;14.17;100.00;100684.78;6228324;23;20341;-88
2021/09/16 20:45:53;;;;;;;5.53;3.75;;;13.00;99.90;;;14.13;100.00;100687.56;6268010;22;19988;-86
2021/09/16 20:48:19;;;;;;;5.40;4.13;;;12.90;99.90;;;14.13;100.00;100693.19;6244392;22;20006;-87
2021/09/16 20:50:45;;;;;;;7.05;4.50;;;12.90;99.90;;;14.14;100.00;100691.19;6252118;23;20004;-88
2021/09/16 20:53:12;;;;;;;7.50;4.78;;;12.90;99.90;;;14.16;100.00;100691.59;6227009;23;20039;-88
2021/09/16 20:55:38;;;;;;;7.32;5.10;;;12.90;99.90;;;14.18;100.00;100698.47;6227437;23;20119;-89
2021/09/16 20:58:04;;;;;;;8.82;3.92;;;13.00;99.90;;;14.19;100.00;100688.06;6227501;23;20008;-90
2021/09/16 21:00:31;;;;;;;6.50;4.13;;;13.00;99.90;;;14.15;100.00;100684.38;6228016;23;20011;-89
2021/09/16 21:02:57;;;;;;;8.98;4.30;;;13.00;99.90;;;14.11;100.00;100683.50;6227352;23;20004;-90
2021/09/16 21:05:23;;;;;;;7.00;4.35;;;12.90;99.90;;;14.12;100.00;100688.78;6226797;23;20004;-90
2021/09/16 21:07:49;;;;;;;6.88;4.53;;;13.00;99.90;;;14.12;100.00;100685.97;6226417;23;20016;-91
2021/09/16 21:10:16;;;;;;;8.32;4.45;;;12.90;99.90;;;14.09;100.00;100681.09;6227337;23;20008;-89
2021/09/16 21:12:42;;;;;;;6.75;4.68;;;12.90;99.90;;;14.08;100.00;100687.09;6226520;23;20008;-87
2021/09/16 21:15:10;;;;;;;5.70;4.15;;;12.90;99.90;;;14.07;100.00;100679.84;6227362;23;20014;-88
2021/09/16 21:17:36;;;;;;;6.25;4.15;;;12.90;99.90;;;14.05;100.00;100680.25;6227160;23;20009;-89
2021/09/16 21:20:04;;;;;;;7.53;4.00;;;12.80;99.90;;;14.02;100.00;100685.81;6229228;23;20007;-90
2021/09/16 21:22:30;;;;;;;10.77;4.50;;;12.80;99.90;;;13.97;100.00;100681.31;6229718;23;20004;-89
2021/09/16 21:24:56;;;;;;;6.60;4.45;;;12.80;99.90;;;13.94;100.00;100684.06;6229678;23;20008;-89
2021/09/16 21:28:04;;;;;;;4.72;4.00;;;12.70;99.90;;;13.91;100.00;100685.66;6229502;23;20362;-88
2021/09/16 21:30:31;;;;;;;8.68;4.32;;;12.70;99.90;;;13.89;100.00;100685.22;6204980;23;20012;-88
2021/09/16 21:32:57;;;;;;;7.45;4.85;;;12.70;99.90;;;13.89;100.00;100688.03;6230548;23;20023;-89
2021/09/16 21:35:23;;;;;;;7.97;4.68;;;12.70;99.90;;;13.83;100.00;100692.38;6230856;23;20008;-87
2021/09/16 21:37:49;;;;;;;4.70;3.78;;;12.70;99.90;;;13.82;100.00;100687.94;6234964;23;20023;-88
2021/09/16 21:40:15;;;;;;;8.27;5.00;;;12.70;99.90;;;13.82;100.00;100685.13;6231535;23;20012;-88
2021/09/16 21:42:42;;;;;;;7.68;5.30;;;12.70;99.90;;;13.81;100.00;100688.28;6233442;23;20031;-88
2021/09/16 21:45:09;;;;;;;7.38;4.07;;;12.60;99.90;;;13.82;100.00;100689.94;6231477;23;20071;-86
2021/09/16 21:47:35;;;;;;;8.82;4.88;;;12.60;99.90;;;13.83;100.00;100691.56;6225844;23;20438;-88
2021/09/16 21:50:04;;;;;;;7.07;4.68;;;12.70;99.90;;;13.82;100.00;100687.94;6226538;23;20094;-88
2021/09/16 21:52:31;;;;;;;6.15;4.25;;;12.60;99.90;;;13.77;100.00;100695.88;6226736;23;20068;-89
2021/09/16 21:54:57;;;;;;;8.05;4.45;;;12.60;99.90;;;13.71;100.00;100689.75;6226510;23;20004;-88
2021/09/16 21:57:23;;;;;;;9.27;4.53;;;12.60;99.90;;;13.68;100.00;100687.72;6227392;23;20008;-87
2021/09/16 21:59:49;;;;;;;6.70;4.63;;;12.50;99.90;;;13.63;100.00;100688.88;6226760;23;20055;-88
2021/09/16 22:02:14;;;;;;;6.57;4.60;;;12.50;99.90;;;13.64;100.00;100695.28;6252672;23;20333;-90
2021/09/16 22:04:40;;;;;;;6.80;5.05;;;12.50;99.90;;;13.62;100.00;100686.41;6252284;23;20005;-88
2021/09/16 22:07:06;;;;;;;7.85;4.65;;;12.40;99.90;;;13.62;100.00;100698.47;6227090;23;20046;-87
2021/09/16 22:09:32;;;;;;;6.05;4.03;;;12.50;99.90;;;13.58;100.00;100703.19;6225759;23;20062;-88
2021/09/16 22:11:58;;;;;;;6.63;4.25;;;12.40;99.90;;;13.59;100.00;100702.03;6223903;23;20125;-87
2021/09/16 22:14:24;;;;;;;7.20;4.60;;;12.40;99.90;;;13.57;100.00;100698.78;6223109;23;20019;-86
2021/09/16 22:16:50;;;;;;;6.63;4.45;;;12.40;99.90;;;13.58;100.00;100703.19;6222256;23;20008;-85
2021/09/16 22:19:17;;;;;;;6.60;4.10;;;12.40;99.90;;;13.60;100.00;100706.47;6248783;22;20015;-85
2021/09/16 22:21:44;;;;;;;6.68;4.03;;;12.40;99.90;;;13.62;100.00;100700.44;6222916;23;20000;-84
2021/09/16 22:24:13;;;;;;;7.10;4.25;;;12.40;99.90;;;13.62;100.00;100701.25;6221982;23;20004;-86
2021/09/16 22:26:39;;;;;;;5.75;4.03;;;12.40;99.90;;;13.58;100.00;100708.03;6222861;23;20023;-84
2021/09/16 22:29:06;;;;;;;6.65;4.57;;;12.40;99.90;;;13.55;100.00;100703.16;6257250;22;19992;-86
2021/09/16 22:31:32;;;;;;;7.05;4.85;;;12.40;99.90;;;13.53;100.00;100702.72;6228005;23;20008;-86
2021/09/16 22:33:58;;;;;;;7.15;4.45;;;12.50;99.90;;;13.50;100.00;100709.09;6228602;23;20004;-88
2021/09/16 22:36:24;;;;;;;8.18;5.43;;;12.40;99.90;;;13.48;100.00;100709.47;6227521;23;20011;-90
2021/09/16 22:38:50;;;;;;;6.63;4.72;;;12.40;99.90;;;13.48;100.00;100706.66;6228847;23;20066;-91
2021/09/16 22:41:16;;;;;;;7.75;4.30;;;12.40;99.90;;;13.45;100.00;100709.41;6227592;23;20064;-88
2021/09/16 22:43:42;;;;;;;8.45;4.72;;;12.40;99.90;;;13.42;100.00;100694.13;6255247;23;20001;-86
2021/09/16 22:46:08;;;;;;;5.20;4.22;;;12.40;99.90;;;13.40;100.00;100695.69;6228398;23;20322;-89
2021/09/16 22:48:34;;;;;;;7.53;4.72;;;12.30;99.90;;;13.34;100.00;100700.81;6229705;23;20012;-88
2021/09/16 22:51:00;;;;;;;5.95;4.30;;;12.30;99.90;;;13.30;100.00;100697.13;6227884;23;20278;-89
2021/09/16 22:53:26;;;;;;;5.57;3.80;;;12.20;99.90;;;13.27;100.00;100691.47;6227862;23;20344;-86
2021/09/16 22:55:53;;;;;;;6.15;3.92;;;12.20;99.90;;;13.25;100.00;100686.25;6227895;23;20011;-88
2021/09/16 22:58:18;;;;;;;5.90;4.30;;;12.20;99.90;;;13.22;100.00;100694.59;6227996;23;20353;-88
2021/09/16 23:00:44;;;;;;;5.10;3.75;;;12.10;99.90;;;13.15;100.00;100687.69;6227564;23;20004;-90
2021/09/16 23:03:10;;;;;;;6.72;4.50;;;12.10;99.90;;;13.12;100.00;100687.63;6226897;23;20027;-90
2021/09/16 23:05:36;;;;;;;6.20;4.22;;;12.10;99.90;;;13.08;100.00;100700.72;6227932;23;20073;-88
2021/09/16 23:08:02;;;;;;;9.35;4.22;;;12.10;99.90;;;13.05;100.00;100691.06;6227096;23;20012;-87
2021/09/16 23:10:28;;;;;;;5.32;4.35;;;12.00;99.90;;;13.02;100.00;100689.03;6227240;23;20038;-88
2021/09/16 23:12:54;;;;;;;7.00;4.20;;;11.90;99.90;;;12.99;100.00;100686.16;6254281;23;20079;-88
2021/09/16 23:15:20;;;;;;;6.65;4.13;;;11.90;99.90;;;12.96;100.00;100681.28;6227259;23;20342;-87
2021/09/16 23:17:46;;;;;;;7.82;4.32;;;11.90;99.90;;;12.93;100.00;100690.44;6227702;23;20004;-85
2021/09/16 23:20:13;;;;;;;7.65;4.97;;;11.90;99.90;;;12.90;100.00;100689.22;6227316;23;20015;-89
2021/09/16 23:22:40;;;;;;;9.77;4.80;;;11.90;99.90;;;12.91;100.00;100690.81;6253371;23;20031;-86
2021/09/16 23:25:07;;;;;;;6.63;4.40;;;11.90;99.90;;;12.94;100.00;100680.88;6226992;23;20010;-89
2021/09/16 23:27:33;;;;;;;6.45;4.10;;;11.80;99.90;;;12.92;100.00;100684.03;6227621;23;20008;-90
2021/09/16 23:29:59;;;;;;;9.35;4.97;;;11.80;99.90;;;12.88;100.00;100683.16;6227257;23;20148;-90
2021/09/16 23:32:27;;;;;;;8.38;4.60;;;11.80;99.90;;;12.86;100.00;100681.91;6227383;23;20008;-88
2021/09/16 23:34:53;;;;;;;8.93;4.68;;;11.80;99.90;;;12.89;100.00;100687.59;6254800;23;20012;-89
2021/09/16 23:37:19;;;;;;;9.32;5.32;;;11.90;99.90;;;12.89;100.00;100678.34;6228250;23;20378;-88
2021/09/16 23:39:46;;;;;;;10.45;5.45;;;11.80;99.90;;;12.88;100.00;100685.94;6255138;22;20050;-89
2021/09/16 23:42:12;;;;;;;7.25;4.95;;;11.80;99.90;;;12.88;100.00;100682.34;6227928;23;20004;-90
2021/09/16 23:44:38;;;;;;;9.93;5.50;;;11.80;99.90;;;12.86;100.00;100679.91;6228111;23;20012;-88
2021/09/16 23:47:04;;;;;;;7.50;4.78;;;11.80;99.90;;;12.82;100.00;100679.03;6253978;23;20031;-89
2021/09/16 23:49:30;;;;;;;6.65;5.00;;;11.80;99.90;;;12.83;100.00;100688.25;6226460;23;20004;-90
2021/09/16 23:52:04;;;;;;;7.60;4.88;;;11.80;99.90;;;12.82;100.00;100678.22;6226874;23;20433;-89
2021/09/16 23:54:30;;;;;;;13.50;5.97;;;11.80;99.90;;;12.83;100.00;100675.06;6226594;23;20008;-90
2021/09/16 23:56:55;;;;;;;6.80;5.15;;;11.80;99.90;;;12.85;100.00;100674.66;6226450;23;20004;-89
2021/09/16 23:59:21;;;;;;;9.15;5.25;;;11.80;99.90;;;12.88;100.00;100679.53;6253075;22;20078;-89
